Eindhoven Airport (VATSIM)

Aankomst - 3


Callsign Type Herkomst Gepland (LT) Actuele aankomsttijd (LT) Status
PHHLI C172 Eindhoven Airport 22:50 22:09 Wordt verwacht
OOWAR P28R Eindhoven Airport 22:25 22:13 Wordt verwacht
KLM731 AT76 Brussels Airport 21:35 22:11 Wordt verwacht


Vertrek - 4


Callsign Type Bestemming Vertrektijd (LT) Status
WZZ610 A20N Geneva Cointrin International Airport 21:40 Vertraagd
PHHLI C172 Eindhoven Airport 21:50 Vertraagd
OOWAR P28R Eindhoven Airport - Vertrokken
TRA64K B738 Copenhagen Kastrup Airport - Vertrokken

Beschikbare gates & stands


Stand/gate Status Stand/gate Status
S1S10
S2S11
S3S12
S4S13
S5S14
S6GA2
S7GA1
S8Helipad
S9

METAR


Tijd 21:50Z

QNH 1007 hPa

CLRUnknown

14 °C / 11 °C

0° / 1kts

Vis 9,700

METAR: EHEH 291955Z AUTO VRB01KT 9999 NCD 14/11 Q1007 BLU NOSIG



Online controllers


  • EHEH_TWR op 131.005

    Eindhoven Tower For sector & airport coverage, check vatglasses.uk Pilot briefing vats.im/ehambriefing | Feedback vats.im/dvfeedback

ATIS


Actieve banen



Neem deel aan de community!

Dutch Sim Pilot heeft een Discord! Druk op onderstaande knop om toegang te krijgen.

Join Discord